Cattown, New York
Current Conditions -  °F | °C
As of 11:35 PM on Tuesday 21 Oct 2014 (Local Time) from KNY0 Reporting Station
Overcast Overcast  
Wind Chill: 43°   Ceiling: 1100
Heat Index: 47°   Visibility: 10mi
Dew Point: 44°   Wind: 10mph
Humidity: 87%   Direction: 40°NE
Pressure: 30.02"   Gusts: NA
Location:  42.7373°N, 74.9926°W
Report Text: KNY0 220335Z AUTO 04009KT 10SM OVC011 09/07 A3002 RMK AO2 T00860066
Loading
Personal Weather Stations






























Interactive Weather Map
Tropical Storm Tracking
New forecast layout! Learn more

10-Day Weather Forecast

Advertisements
Track Severe Weather on mobile